Time;durP1;ratioP1;P1;durP2;ratioP2;P2;SDS_P1;SDS_P2;PMS_P1;PMS_P2;Temp;Humidity;BMP_temperature;BMP_pressure;BME280_temperature;BME280_humidity;BME280_pressure;Samples;Min_cycle;Max_cycle;Signal;HPM_P1;HPM_P2
2023/12/19 15:52:07;;;;;;;6.10;0.93;;;8.40;99.90;;;;;;5070723;28;21132;-78
2023/12/19 15:54:33;;;;;;;5.80;0.90;;;8.30;99.90;;;;;;5069087;28;20177;-77
2023/12/19 15:56:59;;;;;;;6.10;0.70;;;8.20;99.90;;;;;;5069871;28;20172;-79
2023/12/19 15:59:24;;;;;;;3.93;0.60;;;8.20;99.90;;;;;;5070665;28;20535;-79
2023/12/19 16:01:52;;;;;;;7.90;0.93;;;8.10;99.90;;;;;;5067197;28;20172;-77
2023/12/19 16:04:19;;;;;;;5.13;0.70;;;8.00;99.90;;;;;;5069144;28;20547;-78
2023/12/19 16:07:10;;;;;;;5.63;0.97;;;8.00;99.90;;;;;;5070080;28;20208;-77
2023/12/19 16:09:36;;;;;;;2.80;0.80;;;7.90;99.90;;;;;;5068587;28;20176;-77
2023/12/19 16:12:03;;;;;;;6.53;1.20;;;7.90;99.90;;;;;;5069786;28;20188;-78
2023/12/19 16:14:29;;;;;;;8.97;1.03;;;7.90;99.90;;;;;;5070194;28;20233;-77
2023/12/19 16:16:54;;;;;;;8.07;1.13;;;7.90;99.90;;;;;;5071229;28;20251;-77
2023/12/19 16:19:20;;;;;;;4.77;1.10;;;7.90;99.90;;;;;;5069908;28;20180;-82
2023/12/19 16:21:50;;;;;;;6.43;1.10;;;7.80;99.90;;;;;;5071786;28;20583;-77
2023/12/19 16:24:17;;;;;;;6.50;0.80;;;7.80;99.90;;;;;;5070343;28;20180;-80
2023/12/19 16:26:43;;;;;;;5.27;0.90;;;7.70;99.90;;;;;;5074523;28;20172;-79
2023/12/19 16:29:09;;;;;;;5.37;1.13;;;7.70;99.90;;;;;;5067913;28;20191;-78
2023/12/19 16:31:36;;;;;;;7.00;1.30;;;7.60;99.90;;;;;;5067020;28;20204;-77
2023/12/19 16:34:02;;;;;;;3.90;0.70;;;7.60;99.90;;;;;;5073357;28;20234;-76
2023/12/19 16:36:28;;;;;;;7.10;1.20;;;7.50;99.90;;;;;;5070645;28;20180;-74
2023/12/19 16:38:54;;;;;;;6.77;1.13;;;7.40;99.90;;;;;;5076157;28;20180;-80
2023/12/19 16:41:21;;;;;;;3.57;0.73;;;7.30;99.90;;;;;;5071885;28;20169;-80
2023/12/19 16:43:47;;;;;;;3.60;0.80;;;7.30;99.90;;;;;;5070595;28;20177;-82
2023/12/19 16:46:13;;;;;;;7.70;0.80;;;7.30;99.90;;;;;;5067602;28;20794;-82
2023/12/19 16:48:39;;;;;;;5.57;0.90;;;7.20;99.90;;;;;;5067121;28;20170;-81
2023/12/19 16:51:05;;;;;;;8.73;1.27;;;7.20;99.90;;;;;;5067455;28;20220;-82
2023/12/19 16:53:32;;;;;;;5.87;0.97;;;7.20;99.90;;;;;;5066225;28;20222;-81
2023/12/19 16:55:57;;;;;;;5.63;0.83;;;7.10;99.90;;;;;;5065770;28;20644;-80
2023/12/19 16:58:23;;;;;;;6.43;0.93;;;7.10;99.90;;;;;;5065690;28;20203;-79
2023/12/19 17:00:49;;;;;;;4.30;0.90;;;7.00;99.90;;;;;;5068154;28;20168;-82
2023/12/19 17:03:14;;;;;;;8.20;1.30;;;7.10;99.90;;;;;;5055141;28;20177;-81
2023/12/19 17:05:40;;;;;;;3.83;0.80;;;7.10;99.90;;;;;;5054425;28;20173;-81
2023/12/19 17:08:06;;;;;;;4.07;0.83;;;7.10;99.90;;;;;;5053959;28;20652;-81
2023/12/19 17:10:32;;;;;;;6.23;1.03;;;7.10;99.90;;;;;;5053839;28;20213;-82
2023/12/19 17:12:58;;;;;;;6.17;0.87;;;7.00;99.90;;;;;;5053774;28;20177;-84
2023/12/19 17:15:24;;;;;;;5.17;1.20;;;7.10;99.90;;;;;;5053754;28;20181;-81
2023/12/19 17:17:51;;;;;;;8.20;1.13;;;7.10;99.90;;;;;;5051579;28;20516;-81
2023/12/19 17:20:17;;;;;;;8.50;1.20;;;7.10;99.90;;;;;;5033646;28;20647;-81
2023/12/19 17:22:43;;;;;;;8.17;1.50;;;7.10;99.90;;;;;;5034303;28;20165;-79
2023/12/19 17:25:09;;;;;;;5.53;1.13;;;7.00;99.90;;;;;;5043707;28;20174;-81
2023/12/19 17:27:35;;;;;;;9.57;1.20;;;6.90;99.90;;;;;;5052002;28;20674;-81
2023/12/19 17:30:03;;;;;;;7.97;1.20;;;7.00;99.90;;;;;;5053154;28;20200;-80
2023/12/19 17:32:30;;;;;;;3.70;0.77;;;6.90;99.90;;;;;;5053106;28;20181;-81
2023/12/19 17:34:55;;;;;;;3.27;1.10;;;6.90;99.90;;;;;;5042323;28;20986;-80
2023/12/19 17:37:21;;;;;;;7.47;0.70;;;6.90;99.90;;;;;;5037707;28;20178;-85
2023/12/19 17:39:47;;;;;;;3.80;1.00;;;6.90;99.90;;;;;;5053912;28;20177;-83
2023/12/19 17:42:13;;;;;;;7.27;1.30;;;6.90;99.90;;;;;;5051156;28;20165;-81
2023/12/19 17:44:38;;;;;;;2.73;0.83;;;6.90;99.90;;;;;;5052859;28;20177;-82
2023/12/19 17:47:04;;;;;;;8.60;1.10;;;6.90;99.90;;;;;;5053885;28;20169;-81
2023/12/19 17:49:30;;;;;;;11.83;1.50;;;6.90;99.90;;;;;;5062235;28;20578;-84
2023/12/19 17:51:56;;;;;;;6.03;1.10;;;7.00;99.90;;;;;;5053075;28;20331;-84
2023/12/19 17:54:22;;;;;;;5.30;1.30;;;7.00;99.90;;;;;;5065087;28;20255;-83
2023/12/19 17:56:48;;;;;;;15.10;5.33;;;7.00;99.90;;;;;;5050776;28;20280;-82
2023/12/19 17:59:14;;;;;;;8.57;1.60;;;7.00;99.90;;;;;;5051531;28;20268;-86
2023/12/19 18:01:43;;;;;;;5.87;1.13;;;7.00;99.90;;;;;;5051905;28;20185;-81
2023/12/19 18:04:09;;;;;;;5.07;1.00;;;7.00;99.90;;;;;;5052812;28;20178;-81
2023/12/19 18:06:36;;;;;;;5.50;1.30;;;6.90;99.90;;;;;;5052614;28;20176;-79
2023/12/19 18:09:04;;;;;;;8.13;1.10;;;6.90;99.90;;;;;;5052593;28;20191;-79
2023/12/19 18:11:30;;;;;;;2.33;1.03;;;6.90;99.90;;;;;;5053436;28;20225;-81
2023/12/19 18:13:56;;;;;;;5.90;0.90;;;6.90;99.90;;;;;;5041371;28;20213;-81
2023/12/19 18:16:21;;;;;;;6.13;1.40;;;6.90;99.90;;;;;;5033150;28;20182;-78
2023/12/19 18:18:47;;;;;;;8.27;1.20;;;6.90;99.90;;;;;;5058539;28;20169;-77
2023/12/19 18:21:13;;;;;;;5.30;1.13;;;6.90;99.90;;;;;;5064228;28;20184;-78
2023/12/19 18:23:38;;;;;;;7.50;1.07;;;6.90;99.90;;;;;;5048250;28;20572;-82
2023/12/19 18:26:06;;;;;;;8.43;1.53;;;6.90;99.90;;;;;;5043744;28;20208;-81
2023/12/19 18:28:35;;;;;;;5.70;1.60;;;6.80;99.90;;;;;;5036505;28;20189;-82
2023/12/19 18:31:02;;;;;;;8.07;1.53;;;6.70;99.90;;;;;;5036140;28;20216;-80
2023/12/19 18:33:29;;;;;;;8.57;1.83;;;6.70;99.90;;;;;;5042532;28;20264;-86
2023/12/19 18:36:00;;;;;;;8.83;1.93;;;6.70;99.90;;;;;;5056429;28;20263;-82
2023/12/19 18:38:29;;;;;;;10.67;2.70;;;6.60;99.90;;;;;;5038216;28;20633;-84
2023/12/19 18:40:54;;;;;;;6.40;1.90;;;6.50;99.90;;;;;;5047645;28;20172;-82
2023/12/19 18:43:20;;;;;;;9.70;3.77;;;6.50;99.90;;;;;;5054237;28;20544;-81
2023/12/19 18:45:46;;;;;;;91.40;43.97;;;6.40;99.90;;;;;;5039643;28;20176;-83
2023/12/19 18:48:13;;;;;;;27.30;12.33;;;6.30;99.90;;;;;;5054050;28;20183;-83
2023/12/19 18:50:38;;;;;;;23.57;10.57;;;6.20;99.90;;;;;;5041621;28;20229;-81
2023/12/19 18:53:04;;;;;;;13.03;6.60;;;6.20;99.90;;;;;;5037104;28;20177;-82
2023/12/19 18:55:30;;;;;;;17.87;9.73;;;6.20;99.90;;;;;;5034472;28;20263;-81
2023/12/19 18:57:56;;;;;;;24.70;10.43;;;6.20;99.90;;;;;;5032873;28;20174;-84
2023/12/19 19:00:22;;;;;;;9.40;2.10;;;6.20;99.90;;;;;;5040547;28;20177;-82
2023/12/19 19:02:47;;;;;;;16.23;7.70;;;6.10;99.90;;;;;;5046371;28;20188;-84
2023/12/19 19:05:14;;;;;;;10.30;1.87;;;6.10;99.90;;;;;;5050614;28;20185;-81
2023/12/19 19:07:40;;;;;;;10.00;4.20;;;6.00;99.90;;;;;;5059408;28;20181;-82
2023/12/19 19:10:10;;;;;;;18.03;1.97;;;6.10;99.90;;;;;;5056301;28;20238;-80
2023/12/19 19:12:37;;;;;;;7.57;1.80;;;6.00;99.90;;;;;;5048351;28;20736;-81
2023/12/19 19:15:03;;;;;;;5.37;1.47;;;6.10;99.90;;;;;;5050312;28;20173;-82
2023/12/19 19:17:30;;;;;;;6.47;1.50;;;6.10;99.90;;;;;;5055736;28;20211;-83
2023/12/19 19:20:00;;;;;;;4.57;1.50;;;6.00;99.90;;;;;;5050986;28;20712;-83
2023/12/19 19:22:27;;;;;;;6.80;1.43;;;6.00;99.90;;;;;;5054946;28;20207;-81
2023/12/19 19:27:40;;;;;;;5.90;1.30;;;5.90;99.90;;;;;;5039710;28;20201;-84
2023/12/19 19:30:07;;;;;;;9.93;1.77;;;5.90;99.90;;;;;;5033429;28;20296;-80
2023/12/19 19:32:32;;;;;;;5.23;1.37;;;6.00;99.90;;;;;;5036688;28;20658;-82
2023/12/19 19:34:58;;;;;;;8.80;1.63;;;5.90;99.90;;;;;;5044867;28;20272;-80
2023/12/19 19:37:28;;;;;;;6.33;1.50;;;6.00;99.90;;;;;;5061520;28;20184;-80
2023/12/19 19:39:55;;;;;;;5.50;1.50;;;5.90;99.90;;;;;;5042250;28;20181;-80
2023/12/19 19:42:24;;;;;;;8.37;1.63;;;5.90;99.90;;;;;;5056710;28;20185;-82
2023/12/19 19:44:49;;;;;;;9.83;1.70;;;5.90;99.90;;;;;;5056038;28;20181;-80
2023/12/19 19:47:16;;;;;;;7.77;1.60;;;5.90;99.90;;;;;;5047875;28;20667;-81
2023/12/19 19:49:46;;;;;;;8.37;2.00;;;6.00;99.90;;;;;;5048327;28;20173;-79
2023/12/19 19:52:12;;;;;;;8.80;2.03;;;6.00;99.90;;;;;;5054362;28;20188;-80
2023/12/19 19:54:41;;;;;;;9.50;3.00;;;6.00;99.90;;;;;;5042466;28;20173;-81
2023/12/19 19:57:08;;;;;;;6.40;2.07;;;5.90;99.90;;;;;;5045565;28;20191;-80
2023/12/19 19:59:34;;;;;;;5.43;2.30;;;6.00;99.90;;;;;;5052297;28;20211;-83
2023/12/19 20:01:59;;;;;;;8.17;2.40;;;5.90;99.90;;;;;;5048888;28;20185;-82
2023/12/19 20:04:25;;;;;;;12.43;2.67;;;5.90;99.90;;;;;;5052600;28;20676;-82
2023/12/19 20:06:51;;;;;;;5.50;2.00;;;6.00;99.90;;;;;;5055105;28;20236;-82
2023/12/19 20:09:17;;;;;;;5.50;1.87;;;5.90;99.90;;;;;;5058203;28;20168;-83
2023/12/19 20:11:43;;;;;;;8.87;1.80;;;5.90;99.90;;;;;;5050591;28;20683;-81
2023/12/19 20:14:09;;;;;;;8.57;2.37;;;5.90;99.90;;;;;;5050661;28;20161;-82
2023/12/19 20:16:35;;;;;;;8.17;2.57;;;6.00;99.90;;;;;;5052949;28;20169;-81
2023/12/19 20:19:01;;;;;;;13.27;4.97;;;6.10;99.90;;;;;;5047450;28;20573;-81
2023/12/19 20:21:27;;;;;;;10.73;3.40;;;6.10;99.90;;;;;;5030829;28;20192;-81
2023/12/19 20:23:52;;;;;;;10.93;5.00;;;6.30;99.90;;;;;;5030880;28;20178;-81
2023/12/19 20:26:18;;;;;;;9.23;4.00;;;6.50;99.90;;;;;;5032413;28;20637;-81
2023/12/19 20:28:44;;;;;;;4.80;1.20;;;6.50;99.90;;;;;;5034631;28;20194;-79
2023/12/19 20:31:10;;;;;;;4.40;1.00;;;6.60;99.90;;;;;;5038429;28;20243;-81
2023/12/19 20:33:37;;;;;;;7.60;2.50;;;6.70;99.90;;;;;;5051188;28;20184;-80
2023/12/19 20:36:03;;;;;;;4.87;1.60;;;6.80;99.90;;;;;;5050725;28;20291;-82
2023/12/19 20:38:29;;;;;;;6.03;1.07;;;6.80;99.90;;;;;;5052676;28;20185;-81
2023/12/19 20:40:55;;;;;;;5.00;1.20;;;6.90;99.90;;;;;;5037659;28;20186;-80
2023/12/19 20:43:20;;;;;;;6.00;1.17;;;7.00;99.90;;;;;;5034152;28;20201;-82
2023/12/19 20:45:46;;;;;;;5.97;0.93;;;7.10;99.90;;;;;;5033452;28;20205;-83
2023/12/19 20:48:12;;;;;;;6.87;1.47;;;7.00;99.90;;;;;;5035078;28;20173;-79
2023/12/19 20:50:37;;;;;;;4.73;1.37;;;7.00;99.90;;;;;;5034245;28;20222;-81
2023/12/19 20:53:04;;;;;;;12.37;4.77;;;7.10;99.90;;;;;;5034402;28;20658;-81
2023/12/19 20:55:29;;;;;;;10.63;1.87;;;7.10;99.90;;;;;;5034831;28;20249;-80
2023/12/19 20:57:55;;;;;;;30.67;14.87;;;7.10;99.90;;;;;;5039384;28;20217;-80
2023/12/19 21:00:22;;;;;;;6.43;1.60;;;7.10;99.90;;;;;;5063341;28;20532;-79
2023/12/19 21:02:49;;;;;;;6.87;1.53;;;7.00;99.90;;;;;;5052499;28;20205;-82
2023/12/19 21:05:14;;;;;;;6.33;1.30;;;7.10;99.90;;;;;;5057591;28;20656;-82
2023/12/19 21:07:41;;;;;;;5.63;1.40;;;7.10;99.90;;;;;;5055797;28;20230;-82
2023/12/19 21:10:07;;;;;;;6.50;1.30;;;7.10;99.90;;;;;;5035181;28;20676;-80
2023/12/19 21:12:33;;;;;;;8.50;2.07;;;7.10;99.90;;;;;;5053849;28;20639;-80
2023/12/19 21:14:58;;;;;;;8.27;1.60;;;7.20;99.90;;;;;;5054977;28;20177;-85
2023/12/19 21:17:24;;;;;;;7.67;1.30;;;6.40;99.90;;;;;;5054976;28;20565;-80
2023/12/19 21:19:50;;;;;;;11.77;3.57;;;7.30;99.90;;;;;;5037632;28;20166;-84
2023/12/19 21:22:15;;;;;;;8.10;2.30;;;7.30;99.90;;;;;;5032370;28;20178;-81
2023/12/19 21:24:42;;;;;;;7.57;1.43;;;7.20;99.90;;;;;;5034894;28;20166;-82
2023/12/19 21:27:08;;;;;;;5.70;1.63;;;7.20;99.90;;;;;;5034131;28;20637;-82
2023/12/19 21:29:34;;;;;;;9.17;3.10;;;7.20;99.90;;;;;;5033974;28;20170;-82
2023/12/19 21:32:00;;;;;;;6.23;1.27;;;7.30;99.90;;;;;;5046858;28;20229;-82
2023/12/19 21:34:25;;;;;;;9.57;1.30;;;7.20;99.90;;;;;;5050871;28;20165;-78
2023/12/19 21:36:52;;;;;;;7.17;1.50;;;7.20;99.90;;;;;;5045121;28;20178;-82
2023/12/19 21:39:17;;;;;;;12.27;1.90;;;7.30;99.90;;;;;;5055927;28;20169;-82
2023/12/19 21:41:45;;;;;;;8.40;2.00;;;7.30;99.90;;;;;;5053757;28;20192;-82
2023/12/19 21:44:12;;;;;;;12.77;1.57;;;7.30;99.90;;;;;;5052916;28;20703;-80
2023/12/19 21:46:37;;;;;;;9.37;1.30;;;7.30;99.90;;;;;;5043873;28;20174;-82
2023/12/19 21:49:04;;;;;;;5.63;1.40;;;7.30;99.90;;;;;;5033225;28;20229;-80
2023/12/19 21:51:35;;;;;;;6.37;1.50;;;7.30;99.90;;;;;;5032727;28;20225;-80
2023/12/19 21:54:05;;;;;;;10.17;1.63;;;7.40;99.90;;;;;;5033010;28;20248;-80
2023/12/19 21:56:31;;;;;;;7.83;1.43;;;7.30;99.90;;;;;;5040939;28;20200;-83
2023/12/19 21:58:57;;;;;;;8.30;1.60;;;7.30;99.90;;;;;;5041538;28;20684;-81
2023/12/19 22:01:23;;;;;;;7.07;1.57;;;7.30;99.90;;;;;;5040112;28;20182;-81
2023/12/19 22:03:49;;;;;;;11.67;2.20;;;7.40;99.90;;;;;;5041055;28;20180;-82
2023/12/19 22:06:15;;;;;;;9.73;1.60;;;7.40;99.90;;;;;;5052914;28;20184;-81
2023/12/19 22:08:41;;;;;;;7.87;1.80;;;7.30;99.90;;;;;;5047443;28;20170;-81
2023/12/19 22:11:09;;;;;;;7.23;1.43;;;7.30;99.90;;;;;;5036414;28;20217;-82
2023/12/19 22:13:35;;;;;;;5.63;1.40;;;7.20;99.90;;;;;;5049508;28;20263;-82
2023/12/19 22:16:02;;;;;;;6.77;1.70;;;7.20;99.90;;;;;;5053968;28;20195;-81
2023/12/19 22:18:28;;;;;;;7.97;1.50;;;7.20;99.90;;;;;;5057596;28;20170;-81
2023/12/19 22:20:53;;;;;;;8.60;1.80;;;7.20;99.90;;;;;;5051361;28;20189;-81
2023/12/19 22:23:19;;;;;;;11.50;1.47;;;7.20;99.90;;;;;;5071653;28;20192;-80
2023/12/19 22:25:45;;;;;;;9.17;1.77;;;7.20;99.90;;;;;;5034315;28;20691;-80
2023/12/19 22:28:10;;;;;;;9.83;1.73;;;7.20;99.90;;;;;;5039636;28;20517;-82
2023/12/19 22:30:36;;;;;;;7.27;1.20;;;7.20;99.90;;;;;;5035523;28;20587;-82
2023/12/19 22:33:02;;;;;;;8.40;1.53;;;7.20;99.90;;;;;;5051082;28;20170;-82
2023/12/19 22:35:28;;;;;;;6.93;1.50;;;7.20;99.90;;;;;;5056079;28;20209;-83
2023/12/19 22:37:53;;;;;;;7.77;1.43;;;7.20;99.90;;;;;;5041120;28;20166;-82
2023/12/19 22:40:19;;;;;;;6.40;1.23;;;7.20;99.90;;;;;;5032375;28;20197;-86
2023/12/19 22:42:45;;;;;;;12.43;1.70;;;7.20;99.90;;;;;;5037152;28;20176;-84
2023/12/19 22:45:14;;;;;;;10.20;1.63;;;7.20;99.90;;;;;;5049066;28;20174;-81
